Terminal Aerodrome Forecast
Issued by NWS

Home | Current Version | Previous Version | Graphics & Text | Print | Product List | Glossary On
Versions: 1 2 3 4 5 6 7 8 9 10 11 12 13 14 15
000
FTUS45 KGGW 230705 AAA
TAFGDV
TAF AMD
KGDV 230705Z 2307/2406 08011KT P6SM VCTS SCT110CB WS020/15035KT
      TEMPO 2307/2309 VRB20G30KT TSRA OVC100CB
     FM230900 01008KT P6SM VCTS FEW110CB
     FM231200 30017KT P6SM FEW200 WS020/31045KT
     FM231500 28018KT P6SM FEW200
     FM231800 29020G28KT P6SM FEW250
     FM240300 31008KT P6SM FEW250=

USA.gov is the U.S. government's official web portal to all federal, state and local government web resources and services.